• Join FlightAware (Why Join?)
  • Login
  • US Flag 
02:14AM EST


 

Airport Tracker/Info


-or-


 

Live Flight TrackerFlight Track Log ✈ DAL268 ✈ 19-Oct-2013 ✈ KSFO - KJFK

Flight Track Log - Related Links

Times and Time Zones

All times are in EDT time to prevent confusion due to time zone crossing. See the DAL268 flight status page for this flight to view local times or setup timezone preferences in your user account.

Time Position Orientation Groundspeed Altitude Reporting Facility
EDT Latitude Longitude Course Direction KTS MPH feet Rate Location/Type
02:40PM 37.6346 -122.3620 20° North 174 200 700  Level FlightAware ADS-B
02:40PM 37.6382 -122.3570 48° Northeast 173 199 1,000 3,000 Climbing FlightAware ADS-B
02:40PM 37.6399 -122.3540 54° Northeast 165 190 1,200 3,720 Climbing FlightAware ADS-B
02:40PM 37.6417 -122.3510 53° Northeast 161 185 1,500 3,720 Climbing FlightAware ADS-B
02:40PM 37.6439 -122.3480 47° Northeast 161 185 1,700 1,800 Climbing FlightAware ADS-B
02:40PM 37.6525 -122.3370 45° Northeast 182 209 2,100 1,080 Climbing FlightAware ADS-B
02:40PM 37.6627 -122.3240 45° Northeast 207 238 2,300 1,140 Climbing FlightAware ADS-B
02:41PM 37.6731 -122.3090 49° Northeast 231 266 2,700 1,320 Climbing FlightAware ADS-B
02:41PM 37.6847 -122.2930 48° Northeast 251 289 3,000 1,680 Climbing FlightAware ADS-B
02:41PM 37.6980 -122.2740 48° Northeast 271 312 3,600 2,520 Climbing FlightAware ADS-B
02:41PM 37.7080 -122.2600 48° Northeast 272 313 4,200 3,120 Climbing FlightAware ADS-B
02:42PM 37.7133 -122.2510 53° Northeast 272 313 4,600 3,000 Climbing FlightAware ADS-B
02:42PM 37.7191 -122.2350 65° Northeast 274 315 5,100 2,880 Climbing FlightAware ADS-B
02:42PM 37.7296 -122.2020 68° East 279 321 6,200 3,060 Climbing FlightAware ADS-B
02:42PM 37.7379 -122.1770 67° East 281 323 7,100 3,060 Climbing FlightAware ADS-B
02:43PM 37.7449 -122.1540 69° East 282 325 7,800 3,000 Climbing FlightAware ADS-B
02:43PM 37.7520 -122.1300 69° East 283 326 8,600 2,760 Climbing FlightAware ADS-B
02:43PM 37.7594 -122.1050 69° East 287 330 9,300 2,340 Climbing FlightAware ADS-B
02:43PM 37.7670 -122.0780 70° East 294 338 9,900 2,040 Climbing FlightAware ADS-B
02:44PM 37.7822 -122.0280 69° East 313 360 10,900 1,560 Climbing FlightAware ADS-B
02:44PM 37.7978 -121.9730 70° East 347 399 11,500 1,200 Climbing FlightAware ADS-B
02:45PM 37.8163 -121.9080 70° East 378 435 12,200 1,860 Climbing FlightAware ADS-B
02:46PM 37.8356 -121.8420 70° East 383 441 13,500 2,160 Climbing FlightAware ADS-B
02:46PM 37.8545 -121.7780 69° East 399 459 14,400 2,160 Climbing FlightAware ADS-B
02:47PM 37.8740 -121.7100 70° East 403 464 15,700 2,280 Climbing FlightAware ADS-B
02:47PM 37.8915 -121.6470 71° East 409 471 16,700 2,100 Climbing FlightAware ADS-B
02:48PM 37.9056 -121.5760 76° East 413 475 17,800 2,100 Climbing FlightAware ADS-B
02:48PM 37.9193 -121.5010 77° East 418 481 18,900 1,980 Climbing FlightAware ADS-B
02:49PM 37.9338 -121.4270 76° East 424 488 19,900 1,800 Climbing FlightAware ADS-B
02:49PM 37.9510 -121.3430 75° East 430 495 20,900 1,740 Climbing FlightAware
02:50PM 37.9690 -121.2540 76° East 438 504 22,000 1,620 Climbing FlightAware
02:50PM 37.9870 -121.1650 76° East 445 512 22,900 1,560 Climbing FlightAware
02:51PM 38.0050 -121.0740 76° East 450 518 23,900 1,620 Climbing FlightAware
02:51PM 38.0220 -120.9910 75° East 454 522 24,800 1,560 Climbing FlightAware
02:52PM 38.0390 -120.9010 76° East 457 526 25,700 1,380 Climbing FlightAware
02:53PM 38.0560 -120.8100 77° East 462 532 26,500 1,260 Climbing FlightAware
02:53PM 38.0740 -120.7140 77° East 469 540 27,200 1,140 Climbing FlightAware
02:54PM 38.0900 -120.6270 77° East 475 547 27,800 1,140 Climbing FlightAware
02:54PM 38.1090 -120.5290 76° East 480 552 28,500 1,200 Climbing FlightAware
02:55PM 38.1250 -120.4420 77° East 479 551 29,300 1,680 Climbing FlightAware
02:56PM 38.1450 -120.3330 77° East 472 543 30,500 1,440 Climbing FlightAware
02:56PM 38.1630 -120.2360 77° East 468 539 31,000 360 Climbing FlightAware
02:57PM 38.1780 -120.1500 77° East 469 540 31,000  Level FlightAware
02:57PM 38.1763 -120.1612 259° West 471 542 31,000  Level FlightAware ADS-B (KAHC)
02:58PM 38.2170 -119.9350 77° East 469 540 31,000  Level FlightAware
02:59PM 38.2310 -119.8570 77° East 467 537 31,000 480 Level FlightAware
02:59PM 38.2500 -119.7540 77° East 461 531 31,600 1,380 Climbing FlightAware
03:00PM 38.2596 -119.6994 77° East 451 519 32,400 1,800 Climbing FlightAware ADS-B (KAHC)
03:00PM 38.2771 -119.6013 77° East 445 512 33,500 1,560 Climbing FlightAware ADS-B (KAHC)
03:01PM 38.2928 -119.5121 77° East 439 505 34,300 1,200 Climbing FlightAware ADS-B (KAHC)
03:01PM 38.3110 -119.4110 77° East 438 504 35,000 720 Climbing FlightAware
03:02PM 38.2966 -119.4908 257° West 440 506 35,000  Level FlightAware ADS-B (KAHC)
03:02PM 38.3307 -119.2960 77° East 441 507 35,000  Level FlightAware ADS-B (KAHC)
03:03PM 38.3537 -119.1634 77° East 440 506 35,000  Level FlightAware ADS-B (KAHC)
03:04PM 38.3671 -119.0861 77° East 440 506 35,000  Level FlightAware ADS-B (KAHC)
03:04PM 38.3871 -118.9702 78° East 440 506 35,000  Level FlightAware ADS-B (KAHC)
03:05PM 38.4002 -118.8936 78° East 440 506 35,000  Level FlightAware ADS-B (KAHC)
03:06PM 38.4240 -118.7570 77° East 439 505 35,000  Level FlightAware
03:06PM 38.4420 -118.6460 78° East 440 506 35,000  Level FlightAware
03:07PM 38.4620 -118.5310 77° East 440 506 35,000  Level FlightAware
03:08PM 38.4770 -118.4380 78° East 440 506 35,000  Level FlightAware
03:08PM 38.4920 -118.3490 78° East 441 507 35,000  Level FlightAware
03:09PM 38.5060 -118.2600 79° East 441 507 35,000  Level FlightAware
03:10PM 38.5210 -118.1720 78° East 441 507 35,000  Level FlightAware
03:10PM 38.5360 -118.0780 78° East 441 507 35,000  Level FlightAware
03:11PM 38.5530 -117.9750 78° East 442 509 35,000  Level FlightAware
03:12PM 38.5660 -117.8970 78° East 442 509 35,000  Level FlightAware
03:12PM 38.5830 -117.7970 78° East 442 509 35,000  Level FlightAware
03:13PM 38.5960 -117.7190 78° East 442 509 35,000  Level FlightAware
03:13PM 38.6090 -117.6400 78° East 442 509 35,000  Level FlightAware
03:14PM 38.6220 -117.5600 78° East 442 509 35,000  Level FlightAware
03:15PM 38.6350 -117.4810 78° East 442 509 35,000  Level FlightAware
03:15PM 38.6480 -117.4030 78° East 442 509 35,000  Level FlightAware
03:16PM 38.6610 -117.3250 78° East 442 509 35,000  Level FlightAware
03:17PM 38.6740 -117.2440 78° East 442 509 35,000  Level FlightAware
03:17PM 38.6870 -117.1660 78° East 442 509 35,000  Level FlightAware
03:18PM 38.7000 -117.0870 78° East 442 509 35,000  Level FlightAware
03:18PM 38.7130 -117.0090 78° East 442 509 35,000  Level FlightAware
03:19PM 38.7260 -116.9300 78° East 442 509 35,000  Level FlightAware
03:20PM 38.7390 -116.8520 78° East 442 509 35,000  Level FlightAware
03:20PM 38.7520 -116.7730 78° East 442 509 35,000  Level FlightAware
03:21PM 38.7897 -116.4428 78° East 444 511 35,000  Level Salt Lake Center
03:21PM 38.8025 -116.3489 80° East 445 512 35,000  Level Oakland Center
03:22PM 38.8258 -116.1928 79° East 445 512 35,000  Level Oakland Center
03:23PM 38.8389 -116.0989 80° East 446 513 35,000  Level Salt Lake Center
03:24PM 38.8617 -115.9428 79° East 446 513 35,000  Level Salt Lake Center
03:25PM 38.8856 -115.7869 79° East 445 512 35,000  Level Salt Lake Center
03:26PM 38.9072 -115.6306 80° East 445 512 35,000  Level Salt Lake Center
03:27PM 38.9289 -115.4744 80° East 443 510 35,000  Level Salt Lake Center
03:28PM 38.9506 -115.3206 80° East 446 513 35,000  Level Salt Lake Center
03:29PM 38.9731 -115.1625 80° East 449 517 35,000  Level Salt Lake Center
03:30PM 38.9972 -114.9742 81° East 446 513 35,000  Level Salt Lake Center
03:31PM 39.0192 -114.8169 80° East 446 513 35,000  Level Salt Lake Center
03:37PM 39.1350 -113.9130 80° East 450 518 35,000  Level FlightAware
03:38PM 39.1470 -113.8170 81° East 451 519 35,000  Level FlightAware
03:38PM 39.1580 -113.7270 81° East 451 519 35,000  Level FlightAware
03:39PM 39.1700 -113.6290 81° East 453 521 35,000  Level FlightAware
03:39PM 39.1758 -113.5850 80° East 454 522 35,000  Level FlightAware ADS-B
03:40PM 39.1897 -113.4706 81° East 455 524 35,000  Level FlightAware ADS-B
03:40PM 39.2028 -113.3621 81° East 456 525 35,000  Level FlightAware ADS-B
03:41PM 39.2140 -113.2650 81° East 456 525 35,000  Level FlightAware
03:41PM 39.2226 -113.1958 81° East 456 525 35,000  Level FlightAware ADS-B
03:42PM 39.2351 -113.0902 81° East 457 526 35,000  Level FlightAware ADS-B
03:43PM 39.2489 -112.9716 81° East 457 526 35,000  Level FlightAware ADS-B
03:43PM 39.2601 -112.8750 81° East 458 527 35,000  Level FlightAware ADS-B
03:44PM 39.2701 -112.7880 82° East 458 527 35,000  Level FlightAware ADS-B
03:44PM 39.2721 -112.7704 81° East 458 527 35,000  Level FlightAware ADS-B
03:44PM 39.2794 -112.7070 82° East 458 527 35,000  Level FlightAware ADS-B
03:45PM 39.2823 -112.6818 82° East 458 527 35,000  Level FlightAware ADS-B
03:45PM 39.2894 -112.6190 82° East 458 527 35,000  Level FlightAware ADS-B
03:45PM 39.2911 -112.6043 82° East 458 527 35,000  Level FlightAware ADS-B
03:46PM 39.2996 -112.5290 82° East 459 528 35,000  Level FlightAware ADS-B
03:46PM 39.3044 -112.4860 82° East 459 528 35,000  Level FlightAware ADS-B
03:46PM 39.3046 -112.4841 84° East 460 529 35,000  Level FlightAware ADS-B
03:46PM 39.3067 -112.4550 85° East 461 531 35,000  Level FlightAware ADS-B
03:46PM 39.3088 -112.3980 87° East 462 532 35,000  Level FlightAware ADS-B
03:46PM 39.3097 -112.3710 88° East 462 532 35,000  Level FlightAware ADS-B
03:47PM 39.3116 -112.3119 88° East 462 532 35,000  Level FlightAware ADS-B
03:47PM 39.3127 -112.2800 87° East 463 533 35,000  Level FlightAware ADS-B
03:47PM 39.3156 -112.2070 87° East 462 532 35,000  Level FlightAware ADS-B
03:48PM 39.3194 -112.1240 87° East 462 532 35,000  Level FlightAware ADS-B
03:48PM 39.3221 -112.0671 86° East 463 533 35,000  Level FlightAware ADS-B
03:48PM 39.3235 -112.0370 87° East 463 533 35,000  Level FlightAware ADS-B
03:49PM 39.3275 -111.9520 86° East 463 533 35,000  Level FlightAware ADS-B
03:50PM 39.3314 -111.8670 87° East 463 533 35,000  Level FlightAware ADS-B
03:50PM 39.3331 -111.8290 87° East 464 534 35,000  Level FlightAware ADS-B
03:50PM 39.3352 -111.7820 87° East 464 534 35,000  Level FlightAware ADS-B
03:51PM 39.3387 -111.6980 87° East 464 534 35,000  Level FlightAware ADS-B
03:51PM 39.3408 -111.6483 87° East 464 534 35,000  Level FlightAware ADS-B
03:51PM 39.3428 -111.5990 87° East 465 535 35,000  Level FlightAware ADS-B
03:51PM 39.3444 -111.5607 87° East 465 535 35,000  Level FlightAware ADS-B
03:52PM 39.3462 -111.5150 87° East 465 535 35,000  Level FlightAware ADS-B
03:52PM 39.3500 -111.4180 87° East 465 535 35,000  Level FlightAware ADS-B
03:52PM 39.3505 -111.4073 87° East 466 536 35,000  Level FlightAware ADS-B (KMTJ)
03:53PM 39.3544 -111.3030 87° East 466 536 35,000  Level FlightAware ADS-B
03:53PM 39.3547 -111.2960 87° East 466 536 35,000  Level FlightAware ADS-B
03:53PM 39.3578 -111.2130 87° East 466 536 35,000  Level FlightAware ADS-B
03:53PM 39.3579 -111.2121 81° East 466 536 35,000  Level FlightAware ADS-B
03:54PM 39.3609 -111.1300 87° East 466 536 35,000  Level FlightAware ADS-B
03:54PM 39.3621 -111.0993 87° East 466 536 35,000  Level FlightAware ADS-B
03:54PM 39.3641 -111.0450 87° East 467 537 35,000  Level FlightAware ADS-B
03:55PM 39.3661 -110.9883 87° East 466 536 35,000  Level FlightAware ADS-B
03:55PM 39.3692 -110.8989 87° East 467 537 35,000  Level FlightAware ADS-B
03:56PM 39.3724 -110.8058 87° East 468 539 35,000  Level FlightAware ADS-B
03:57PM 39.3758 -110.7053 88° East 468 539 35,000  Level FlightAware ADS-B
03:57PM 39.3783 -110.6309 88° East 468 539 35,000  Level FlightAware ADS-B
03:58PM 39.3825 -110.4969 88° East 468 539 35,000  Level FlightAware ADS-B
03:58PM 39.3852 -110.4116 88° East 468 539 35,000  Level FlightAware ADS-B
03:59PM 39.3879 -110.3192 88° East 468 539 35,000  Level FlightAware ADS-B
03:59PM 39.3905 -110.2335 88° East 469 540 35,000  Level FlightAware ADS-B
04:00PM 39.3928 -110.1497 88° East 468 539 35,000  Level FlightAware ADS-B
04:00PM 39.3953 -110.0594 88° East 469 540 35,000  Level FlightAware ADS-B
04:01PM 39.3977 -109.9743 88° East 470 541 35,000  Level FlightAware ADS-B
04:01PM 39.4000 -109.8845 88° East 468 539 35,000  Level FlightAware ADS-B
04:02PM 39.4021 -109.8030 88° East 468 539 35,000  Level FlightAware ADS-B
04:02PM 39.4043 -109.7141 88° East 468 539 35,000  Level FlightAware ADS-B
04:03PM 39.4064 -109.6286 88° East 467 537 35,000  Level FlightAware ADS-B
04:03PM 39.4084 -109.5444 88° East 467 537 35,000  Level FlightAware ADS-B
04:04PM 39.4103 -109.4574 88° East 468 539 35,000  Level FlightAware ADS-B
04:04PM 39.4122 -109.3710 88° East 467 537 35,000  Level FlightAware ADS-B (KMTJ)
04:05PM 39.4146 -109.2618 88° East 467 537 35,000  Level FlightAware ADS-B
04:06PM 39.4162 -109.1796 88° East 467 537 35,000  Level FlightAware ADS-B
04:06PM 39.4184 -109.0660 89° East 465 535 35,000  Level FlightAware ADS-B
04:07PM 39.4200 -108.9836 89° East 465 535 35,000  Level FlightAware ADS-B
04:07PM 39.4215 -108.8995 89° East 466 536 35,000  Level FlightAware ADS-B
04:08PM 39.4230 -108.8141 89° East 467 537 35,000  Level FlightAware ADS-B
04:08PM 39.4243 -108.7315 89° East 469 540 35,000  Level FlightAware ADS-B
04:09PM 39.4257 -108.6442 89° East 470 541 35,000  Level FlightAware ADS-B (KMTJ)
04:09PM 39.4270 -108.5598 89° East 471 542 35,000  Level FlightAware ADS-B
04:10PM 39.4283 -108.4690 89° East 472 543 35,000  Level FlightAware ADS-B
04:10PM 39.4297 -108.3633 89° East 472 543 35,000  Level FlightAware ADS-B (KMTJ)
04:11PM 39.4307 -108.2823 89° East 472 543 35,000  Level FlightAware ADS-B (KANK)
04:12PM 39.4318 -108.1862 89° East 473 544 35,000  Level FlightAware ADS-B
04:12PM 39.4328 -108.1024 89° East 474 545 35,000  Level FlightAware ADS-B
04:13PM 39.4336 -108.0192 89° East 474 545 35,000  Level FlightAware ADS-B
04:13PM 39.4344 -107.9318 89° East 474 545 35,000  Level FlightAware ADS-B
04:14PM 39.4352 -107.8453 89° East 474 545 35,000  Level FlightAware ADS-B
04:14PM 39.4359 -107.7544 89° East 473 544 35,000  Level FlightAware ADS-B
04:14PM 39.4358 -107.7753 269° West 473 544 35,000  Level FlightAware ADS-B (KMTJ)
04:15PM 39.4368 -107.6306 89° East 473 544 35,000  Level FlightAware ADS-B
04:15PM 39.4373 -107.5480 90° East 472 543 35,000  Level FlightAware ADS-B
04:16PM 39.4378 -107.4614 90° East 474 545 35,000  Level FlightAware ADS-B (KMTJ)
04:16PM 39.4382 -107.3740 90° East 474 545 35,000  Level FlightAware ADS-B
04:17PM 39.4386 -107.2876 90° East 475 547 35,000  Level FlightAware ADS-B
04:17PM 39.4389 -107.2058 90° East 474 545 35,000  Level FlightAware ADS-B
04:18PM 39.4391 -107.1147 90° East 473 544 35,000  Level FlightAware ADS-B
04:18PM 39.4392 -107.0301 90° East 472 543 35,000  Level FlightAware ADS-B
04:19PM 39.4393 -106.9412 90° East 472 543 35,000  Level FlightAware ADS-B
04:19PM 39.4395 -106.8500 90° East 471 542 35,000  Level FlightAware ADS-B
04:20PM 39.4407 -106.7663 89° East 471 542 35,000  Level FlightAware ADS-B
04:20PM 39.4419 -106.6771 89° East 472 543 35,000  Level FlightAware ADS-B (KANK)
04:21PM 39.4429 -106.5897 89° East 473 544 35,000  Level FlightAware ADS-B (KANK)
04:21PM 39.4437 -106.5062 89° East 473 544 35,000  Level FlightAware ADS-B (KANK)
04:22PM 39.4445 -106.4104 89° East 471 542 35,000  Level FlightAware ADS-B (KANK)
04:23PM 39.4452 -106.3222 89° East 474 545 35,000  Level FlightAware ADS-B (KANK)
04:23PM 39.4453 -106.3075 89° East 474 545 35,000 240 Level FlightAware ADS-B (KEIK)
04:23PM 39.4460 -106.2038 89° East 475 547 35,200 600 Climbing FlightAware ADS-B (KANK)
04:24PM 39.4466 -106.1157 90° East 476 548 35,700 1,020 Climbing FlightAware ADS-B (KANK)
04:24PM 39.4470 -106.0247 90° East 474 545 36,300 1,140 Climbing FlightAware ADS-B (KANK)
04:25PM 39.4474 -105.9425 90° East 473 544 36,900 660 Climbing FlightAware ADS-B (KANK)
04:25PM 39.4477 -105.8500 90° East 472 543 37,000 60 Climbing FlightAware ADS-B (KANK)
04:26PM 39.4479 -105.7648 90° East 472 543 37,000  Level FlightAware ADS-B (KANK)
04:26PM 39.4482 -105.6637 90° East 478 550 37,000  Level FlightAware ADS-B (KEIK)
04:27PM 39.4485 -105.5554 90° East 484 557 37,000  Level FlightAware ADS-B (KEIK)
04:28PM 39.4484 -105.4710 90° East 480 552 37,000  Level FlightAware ADS-B (KANK)
04:28PM 39.4484 -105.3800 90° East 478 550 37,000  Level FlightAware ADS-B (KEIK)
04:29PM 39.4483 -105.2949 90° East 474 545 37,000  Level FlightAware ADS-B (KANK)
04:29PM 39.4481 -105.2122 90° East 470 541 37,000  Level FlightAware ADS-B (KANK)
04:30PM 39.4480 -105.1258 90° East 478 550 37,000  Level FlightAware ADS-B (KEIK)
04:30PM 39.4478 -105.0476 90° East 476 548 37,000  Level FlightAware ADS-B (KEIK)
04:31PM 39.4474 -104.9576 90° East 469 540 37,000  Level FlightAware ADS-B (KEIK)
04:31PM 39.4469 -104.8527 90° East 470 541 37,000  Level FlightAware ADS-B (KANK)
04:32PM 39.4466 -104.7944 90° East 469 540 37,000  Level FlightAware ADS-B (KEIK)
04:32PM 39.4461 -104.7105 90° East 467 537 37,000  Level FlightAware ADS-B (KANK)
04:33PM 39.4455 -104.6215 91° East 468 539 37,000  Level FlightAware ADS-B (KEIK)
04:33PM 39.4449 -104.5363 90° East 468 539 37,000  Level FlightAware ADS-B (KEIK)
04:34PM 39.4442 -104.4500 91° East 469 540 37,000  Level FlightAware ADS-B (KEIK)
04:34PM 39.4434 -104.3607 91° East 469 540 37,000  Level FlightAware ADS-B (KANK)
04:35PM 39.4426 -104.2823 91° East 470 541 37,000  Level FlightAware ADS-B (KEIK)
04:35PM 39.4417 -104.1911 91° East 469 540 37,000  Level FlightAware ADS-B (KEIK)
04:36PM 39.4409 -104.1199 91° East 470 541 37,000  Level FlightAware ADS-B (KANK)
04:37PM 39.4370 -103.8330 91° East 472 543 37,000  Level FlightAware
04:38PM 39.4360 -103.7390 91° East 473 544 37,000  Level FlightAware
04:38PM 39.4340 -103.6340 91° East 475 547 37,000  Level FlightAware
04:39PM 39.4330 -103.5500 91° East 476 548 37,000  Level FlightAware
04:40PM 39.4310 -103.4390 91° East 477 549 37,000  Level FlightAware
04:40PM 39.4290 -103.3320 91° East 478 550 37,000  Level FlightAware
04:41PM 39.4280 -103.2390 91° East 479 551 37,000  Level FlightAware
04:41PM 39.4260 -103.1370 91° East 480 552 37,000  Level FlightAware
04:42PM 39.4236 -103.0381 92° East 480 552 37,000  Level FlightAware ADS-B (KANK)
04:42PM 39.4220 -102.9430 91° East 480 552 37,000  Level FlightAware
04:43PM 39.4190 -102.8390 92° East 480 552 37,000  Level FlightAware
04:44PM 39.4170 -102.7320 91° East 480 552 37,000  Level FlightAware
04:44PM 39.4140 -102.6250 92° East 482 555 37,000  Level FlightAware
04:45PM 39.4120 -102.5140 91° East 484 557 37,000  Level FlightAware
04:46PM 39.4090 -102.3700 91° East 485 558 37,000  Level FlightAware
04:47PM 39.4040 -102.2160 92° East 488 562 37,000  Level FlightAware
04:47PM 39.4010 -102.1080 92° East 490 564 37,000  Level FlightAware
04:48PM 39.3980 -102.0130 92° East 490 564 37,000  Level FlightAware
04:49PM 39.3950 -101.9010 92° East 493 567 37,000  Level FlightAware
04:49PM 39.3920 -101.7960 92° East 494 568 37,000  Level FlightAware
04:50PM 39.3890 -101.7050 92° East 494 568 37,000  Level FlightAware
04:50PM 39.3870 -101.6150 92° East 494 568 37,000  Level FlightAware
04:51PM 39.3840 -101.5200 92° East 494 568 37,000  Level FlightAware
04:52PM 39.3820 -101.4270 92° East 494 568 37,000  Level FlightAware
04:52PM 39.3790 -101.3340 92° East 494 568 37,000  Level FlightAware
04:53PM 39.3760 -101.2410 92° East 494 568 37,000  Level FlightAware
04:53PM 39.3740 -101.1500 92° East 494 568 37,000  Level FlightAware
04:54PM 39.3720 -101.0600 92° East 494 568 37,000  Level FlightAware
04:55PM 39.3690 -100.9700 92° East 494 568 37,000  Level FlightAware
04:55PM 39.3670 -100.8790 92° East 494 568 37,000  Level FlightAware
04:56PM 39.3640 -100.7860 92° East 494 568 37,000  Level FlightAware
04:56PM 39.3620 -100.6910 92° East 494 568 37,000  Level FlightAware
04:57PM 39.3590 -100.6000 92° East 494 568 37,000  Level FlightAware
04:58PM 39.3570 -100.5100 92° East 494 568 37,000  Level FlightAware
04:58PM 39.3540 -100.4200 92° East 494 568 37,000  Level FlightAware
05:03PM 39.3990 -99.2000 87° East 513 590 37,000  Level FlightAware
05:04PM 39.3990 -99.0960 90° East 513 590 37,000  Level FlightAware
05:05PM 39.3990 -99.0020 90° East 513 590 37,000  Level FlightAware
05:05PM 39.3990 -98.9080 90° East 513 590 37,000  Level FlightAware
05:06PM 39.3950 -98.7700 92° East 513 590 37,000  Level FlightAware
05:06PM 39.3950 -98.6690 90° East 513 590 37,000  Level FlightAware
05:07PM 39.3950 -98.5750 90° East 513 590 37,000  Level FlightAware
05:08PM 39.3950 -98.4750 90° East 513 590 37,000  Level FlightAware
05:08PM 39.3950 -98.3810 90° East 513 590 37,000  Level FlightAware
05:09PM 39.3950 -98.2870 90° East 513 590 37,000  Level FlightAware
05:09PM 39.3950 -98.1930 90° East 513 590 37,000  Level FlightAware
05:10PM 39.3680 -97.9370 98° East 514 592 37,000  Level FlightAware
05:11PM 39.3660 -97.8290 91° East 513 590 37,000  Level FlightAware
05:12PM 39.3640 -97.7070 91° East 512 589 37,000  Level FlightAware
05:12PM 39.3620 -97.5900 91° East 512 589 37,000  Level FlightAware
05:13PM 39.3610 -97.4910 91° East 511 588 37,000  Level FlightAware
05:13PM 39.3590 -97.3830 91° East 511 588 37,000  Level FlightAware
05:14PM 39.3580 -97.2880 91° East 511 588 37,000  Level FlightAware
05:15PM 39.3550 -97.1690 92° East 511 588 37,000  Level FlightAware
05:15PM 39.3530 -97.0630 91° East 511 588 37,000  Level FlightAware
05:16PM 39.3520 -96.9690 91° East 512 589 37,000  Level FlightAware
05:16PM 39.3506 -96.9178 92° East 513 590 37,000  Level FlightAware ADS-B
05:17PM 39.3502 -96.8998 92° East 514 592 37,000  Level FlightAware ADS-B
05:18PM 39.3447 -96.6492 92° East 518 596 37,000  Level FlightAware ADS-B
05:19PM 39.3390 -96.4240 92° East 520 598 37,000  Level FlightAware
05:19PM 39.3364 -96.3056 92° East 522 601 37,000  Level FlightAware ADS-B
05:20PM 39.3340 -96.2060 92° East 523 602 37,000  Level FlightAware
05:20PM 39.3310 -96.0940 92° East 523 602 37,000  Level FlightAware
05:21PM 39.3340 -96.2090 272° West 523 602 37,000  Level FlightAware
05:21PM 39.3320 -96.1260 92° East 523 602 37,000  Level FlightAware
05:22PM 39.3270 -95.9780 92° East 525 604 37,000  Level FlightAware
05:23PM 39.3230 -95.8140 92° East 525 604 37,000  Level FlightAware
05:23PM 39.3200 -95.7260 92° East 525 604 37,000  Level FlightAware
05:24PM 39.3126 -95.4945 92° East 525 604 37,000  Level FlightAware ADS-B
05:24PM 39.3150 -95.5550 273° West 525 604 37,000  Level FlightAware
05:25PM 39.3110 -95.4460 93° East 525 604 37,000  Level FlightAware
05:26PM 39.3070 -95.3320 93° East 526 605 37,000  Level FlightAware
05:26PM 39.3030 -95.2180 93° East 526 605 37,000  Level FlightAware
05:27PM 39.2990 -95.1080 93° East 527 606 37,000  Level FlightAware
05:27PM 39.2930 -94.9440 93° East 528 608 37,000  Level FlightAware
05:28PM 39.2870 -94.7930 93° East 529 609 37,000  Level FlightAware
05:29PM 39.2773 -94.5387 93° East 531 611 37,000  Level FlightAware ADS-B
05:29PM 39.2720 -94.4020 93° East 531 611 37,000  Level FlightAware
05:30PM 39.2670 -94.2890 93° East 533 613 37,000  Level FlightAware
05:31PM 39.2615 -94.1713 93° East 535 616 37,000  Level FlightAware ADS-B
05:32PM 39.2520 -93.9720 93° East 535 616 37,000  Level FlightAware
05:32PM 39.2460 -93.8470 94° East 538 619 37,000  Level FlightAware
05:33PM 39.2410 -93.7430 94° East 538 619 37,000  Level FlightAware
05:33PM 39.2360 -93.6230 93° East 539 620 37,000  Level FlightAware
05:34PM 39.2300 -93.5070 94° East 539 620 37,000  Level FlightAware
05:35PM 39.2240 -93.3980 94° East 540 621 37,000  Level FlightAware
05:35PM 39.2180 -93.2780 94° East 541 623 37,000  Level FlightAware
05:36PM 39.2130 -93.1780 94° East 542 624 37,000  Level FlightAware
05:36PM 39.2060 -93.0550 94° East 542 624 37,000  Level FlightAware
05:37PM 39.2000 -92.9430 94° East 544 626 37,000  Level FlightAware
05:37PM 39.1940 -92.8390 94° East 546 628 37,000  Level FlightAware
05:38PM 39.1880 -92.7220 94° East 548 631 37,000  Level FlightAware
05:39PM 39.1820 -92.6230 94° East 548 631 37,000  Level FlightAware
05:39PM 39.1740 -92.4870 94° East 550 633 37,000  Level FlightAware
05:40PM 39.1660 -92.3520 94° East 551 634 37,000  Level FlightAware
05:41PM 39.1590 -92.2310 94° East 552 635 37,000  Level FlightAware
05:41PM 39.1530 -92.1310 94° East 552 635 37,000  Level FlightAware
05:42PM 39.1450 -92.0120 95° East 553 636 37,000  Level FlightAware
05:42PM 39.1380 -91.8960 94° East 554 638 37,000  Level FlightAware
05:43PM 39.1300 -91.7790 95° East 554 638 37,000  Level FlightAware
05:43PM 39.1230 -91.6690 95° East 555 639 37,000  Level FlightAware
05:44PM 39.1150 -91.5480 95° East 556 640 37,000  Level FlightAware
05:45PM 39.1060 -91.4260 95° East 556 640 37,000  Level FlightAware
05:45PM 39.0980 -91.3020 95° East 557 641 37,000  Level FlightAware
05:46PM 39.0890 -91.1780 95° East 557 641 37,000  Level FlightAware
05:47PM 39.0810 -91.0640 95° East 557 641 37,000  Level FlightAware
05:47PM 39.0730 -90.9540 95° East 557 641 37,000  Level FlightAware
05:48PM 39.0640 -90.8350 96° East 558 642 37,000  Level FlightAware
05:49PM 39.0600 -90.6510 92° East 561 646 37,000  Level FlightAware
05:49PM 39.0680 -90.5480 84° East 562 647 37,000  Level FlightAware
05:50PM 39.0840 -90.4090 82° East 563 648 37,000  Level FlightAware
05:50PM 39.0970 -90.2860 82° East 563 648 37,000  Level FlightAware
05:51PM 39.1100 -90.1640 82° East 562 647 37,000  Level FlightAware
05:52PM 39.1230 -90.0470 82° East 562 647 37,000  Level FlightAware
05:52PM 39.1340 -89.9440 82° East 562 647 37,000  Level FlightAware
05:53PM 39.1470 -89.8220 82° East 561 646 37,000  Level FlightAware
05:53PM 39.1600 -89.7090 82° East 561 646 37,000  Level FlightAware
05:54PM 39.1710 -89.6020 82° East 560 644 37,000  Level FlightAware
05:55PM 39.1850 -89.4780 82° East 560 644 37,000  Level FlightAware
05:55PM 39.1980 -89.3530 82° East 560 644 37,000  Level FlightAware
05:56PM 39.2100 -89.2390 82° East 561 646 37,000  Level FlightAware
05:56PM 39.2210 -89.1300 83° East 560 644 37,000  Level FlightAware
05:57PM 39.2330 -89.0190 82° East 560 644 37,000  Level FlightAware
05:57PM 39.2460 -88.8870 83° East 560 644 37,000  Level FlightAware
05:58PM 39.2580 -88.7690 82° East 561 646 37,000  Level FlightAware
05:59PM 39.2680 -88.6700 83° East 561 646 37,000  Level FlightAware
05:59PM 39.2800 -88.5450 83° East 563 648 37,000  Level FlightAware
06:00PM 39.2920 -88.4170 83° East 564 649 37,000  Level FlightAware
06:00PM 39.3050 -88.2900 82° East 565 650 37,000  Level FlightAware
06:01PM 39.3170 -88.1620 83° East 565 650 37,000  Level FlightAware
06:02PM 39.3260 -88.0600 83° East 565 650 37,000  Level FlightAware
06:02PM 39.3360 -87.9520 83° East 564 649 37,000  Level FlightAware
06:03PM 39.3490 -87.8180 83° East 564 649 37,000  Level FlightAware
06:03PM 39.3580 -87.7120 84° East 565 650 37,000  Level FlightAware
06:04PM 39.3690 -87.5870 83° East 565 650 37,000  Level FlightAware
06:05PM 39.3790 -87.4830 83° East 565 650 37,000  Level FlightAware
06:05PM 39.3900 -87.3540 84° East 564 649 37,000  Level FlightAware
06:06PM 39.4010 -87.2260 84° East 565 650 37,000  Level FlightAware
06:06PM 39.4110 -87.1100 84° East 564 649 37,000  Level FlightAware
06:07PM 39.4200 -87.0040 84° East 564 649 37,000  Level FlightAware
06:07PM 39.4300 -86.8800 84° East 564 649 37,000  Level FlightAware
06:08PM 39.4410 -86.7550 83° East 564 649 37,000  Level FlightAware
06:09PM 39.4490 -86.6480 84° East 564 649 37,000  Level FlightAware
06:09PM 39.4590 -86.5320 84° East 562 647 37,000  Level FlightAware
06:10PM 39.4680 -86.4130 84° East 562 647 37,000  Level FlightAware
06:10PM 39.4780 -86.2900 84° East 562 647 37,000  Level FlightAware
06:11PM 39.4870 -86.1760 84° East 561 646 37,000  Level FlightAware
06:12PM 39.4970 -86.0550 84° East 564 649 37,000  Level FlightAware
06:12PM 39.5190 -85.9610 73° East 566 651 37,000  Level FlightAware
06:13PM 39.5670 -85.8380 63° Northeast 565 650 37,000  Level FlightAware
06:13PM 39.6090 -85.7360 62° Northeast 565 650 37,000  Level FlightAware
06:14PM 39.6490 -85.6380 62° Northeast 564 649 37,000  Level FlightAware
06:14PM 39.6920 -85.5340 62° Northeast 563 648 37,000  Level FlightAware
06:15PM 39.7370 -85.4240 62° Northeast 562 647 37,000  Level FlightAware
06:16PM 39.7730 -85.3360 62° Northeast 561 646 37,000  Level FlightAware
06:16PM 39.8210 -85.2180 62° Northeast 562 647 37,000  Level FlightAware
06:17PM 39.8630 -85.1140 62° Northeast 562 647 37,000  Level FlightAware
06:17PM 39.9080 -85.0030 62° Northeast 561 646 37,000  Level FlightAware
06:18PM 39.9470 -84.9050 63° Northeast 561 646 37,000  Level FlightAware
06:19PM 39.9900 -84.7990 62° Northeast 562 647 37,000  Level FlightAware
06:19PM 40.0270 -84.7050 63° Northeast 562 647 37,000  Level FlightAware
06:20PM 40.0730 -84.5890 63° Northeast 562 647 37,000  Level FlightAware
06:20PM 40.1180 -84.4760 62° Northeast 561 646 37,000  Level FlightAware
06:21PM 40.1520 -84.3900 63° Northeast 560 644 37,000  Level FlightAware
06:21PM 40.1980 -84.2730 63° Northeast 560 644 37,000  Level FlightAware
06:22PM 40.2400 -84.1660 63° Northeast 560 644 37,000  Level FlightAware
06:23PM 40.2780 -84.0690 63° Northeast 559 643 37,000  Level FlightAware
06:23PM 40.3210 -83.9610 62° Northeast 558 642 37,000  Level FlightAware
06:24PM 40.3660 -83.8550 61° Northeast 556 640 37,000  Level FlightAware
06:24PM 40.4110 -83.7490 61° Northeast 557 641 37,000  Level FlightAware
06:25PM 40.4500 -83.6530 62° Northeast 558 642 37,000  Level FlightAware
06:26PM 40.4950 -83.5460 61° Northeast 559 643 37,000  Level FlightAware
06:26PM 40.5400 -83.4380 61° Northeast 561 646 37,000  Level FlightAware
06:27PM 40.5810 -83.3360 62° Northeast 565 650 37,000  Level FlightAware
06:27PM 40.6240 -83.2310 62° Northeast 569 655 37,000  Level FlightAware
06:28PM 40.6800 -83.0940 62° Northeast 572 658 37,000  Level FlightAware
06:29PM 40.7200 -82.9950 62° Northeast 574 661 37,000  Level FlightAware
06:29PM 40.7640 -82.8860 62° Northeast 576 663 37,000  Level FlightAware
06:30PM 40.8110 -82.7680 62° Northeast 575 662 37,000  Level FlightAware
06:30PM 40.8500 -82.6710 62° Northeast 576 663 37,000  Level FlightAware
06:31PM 40.8940 -82.5620 62° Northeast 577 664 37,000  Level FlightAware
06:32PM 40.9420 -82.4410 62° Northeast 577 664 37,000  Level FlightAware
06:32PM 40.9810 -82.3420 62° Northeast 576 663 37,000  Level FlightAware
06:33PM 41.0260 -82.2290 62° Northeast 576 663 37,000  Level FlightAware
06:33PM 41.0690 -82.1200 62° Northeast 575 662 37,000  Level FlightAware
06:34PM 41.1070 -82.0020 67° East 573 659 37,000  Level FlightAware
06:34PM 41.1330 -81.8940 72° East 572 658 37,000  Level FlightAware
06:35PM 41.1580 -81.7720 75° East 571 657 37,000  Level FlightAware
06:36PM 41.1830 -81.6500 75° East 571 657 37,000  Level FlightAware
06:36PM 41.2050 -81.5440 75° East 570 656 37,000  Level FlightAware
06:37PM 41.2300 -81.4170 75° East 568 654 37,000  Level FlightAware
06:37PM 41.2540 -81.2960 75° East 569 655 37,000  Level FlightAware
06:38PM 41.2770 -81.1790 75° East 567 652 37,000  Level FlightAware
06:38PM 41.2970 -81.0720 76° East 568 654 37,000  Level FlightAware
06:39PM 41.3200 -80.9500 76° East 569 655 37,000  Level FlightAware
06:40PM 41.3450 -80.8220 75° East 568 654 37,000  Level FlightAware
06:40PM 41.3650 -80.7150 76° East 568 654 37,000  Level FlightAware
06:41PM 41.3880 -80.5890 76° East 569 655 37,000  Level FlightAware
06:41PM 41.4100 -80.4710 76° East 569 655 37,000  Level FlightAware
06:42PM 41.4330 -80.3490 76° East 569 655 37,000  Level FlightAware
06:43PM 41.4520 -80.2460 76° East 568 654 37,000  Level FlightAware
06:43PM 41.4750 -80.1240 76° East 569 655 37,000  Level FlightAware
06:44PM 41.4990 -79.9910 76° East 569 655 37,000  Level FlightAware
06:44PM 41.5220 -79.8600 77° East 569 655 37,000  Level FlightAware
06:45PM 41.5430 -79.7430 76° East 570 656 37,000  Level FlightAware
06:46PM 41.5630 -79.6110 79° East 566 651 37,000  Level FlightAware
06:46PM 41.5750 -79.4980 82° East 565 650 37,000  Level FlightAware
06:47PM 41.5850 -79.3850 83° East 563 648 37,000  Level FlightAware
06:47PM 41.5930 -79.2450 86° East 562 647 37,000  Level FlightAware
06:48PM 41.6000 -79.1330 85° East 562 647 37,000  Level FlightAware
06:49PM 41.6060 -79.0050 86° East 563 648 37,000  Level FlightAware
06:49PM 41.6120 -78.8890 86° East 562 647 37,000  Level FlightAware
06:50PM 41.6170 -78.7710 87° East 562 647 37,000  Level FlightAware
06:50PM 41.6220 -78.6600 87° East 561 646 37,000  Level FlightAware
06:51PM 41.6280 -78.5340 86° East 562 647 37,000  Level FlightAware
06:51PM 41.6330 -78.4040 87° East 561 646 37,000  Level FlightAware
06:52PM 41.6380 -78.2770 87° East 561 646 37,000  Level FlightAware
06:53PM 41.6430 -78.1680 86° East 561 646 37,000  Level FlightAware
06:53PM 41.6470 -78.0480 87° East 560 644 37,000  Level FlightAware
06:54PM 41.6520 -77.9240 87° East 560 644 37,000  Level FlightAware
06:54PM 41.6580 -77.7830 87° East 558 642 37,000  Level FlightAware
06:55PM 41.6620 -77.6580 88° East 557 641 37,000  Level FlightAware
06:56PM 41.6660 -77.5350 87° East 556 640 37,000  Level FlightAware
06:56PM 41.6710 -77.4110 87° East 557 641 37,000  Level FlightAware
06:57PM 41.6740 -77.3020 88° East 560 644 37,000  Level FlightAware
06:57PM 41.6740 -77.1760 90° East 547 629 37,000  Level FlightAware
06:58PM 41.6570 -77.0720 102° East 526 605 37,000  Level FlightAware
06:59PM 41.6280 -76.9640 110° East 524 603 37,000  Level FlightAware
06:59PM 41.5990 -76.8580 110° East 524 603 37,000  Level FlightAware
07:00PM 41.5690 -76.7490 110° East 526 605 37,000  Level FlightAware
07:00PM 41.5370 -76.6320 110° East 528 608 37,000  Level FlightAware
07:01PM 41.5090 -76.5290 110° East 531 611 37,000 -120 Level FlightAware
07:02PM 41.4760 -76.4110 110° East 532 612 36,900 -780 Descending FlightAware
07:02PM 41.4520 -76.3230 110° East 535 616 36,200 -1,800 Descending FlightAware
07:03PM 41.4170 -76.1980 110° East 540 621 34,900 -1,800 Descending FlightAware
07:03PM 41.3820 -76.0750 111° Southeast 541 623 34,000 -1,440 Descending FlightAware
07:04PM 41.3530 -75.9710 110° East 540 621 33,200 -1,980 Descending FlightAware
07:05PM 41.3230 -75.8650 111° Southeast 541 623 31,700 -2,880 Descending FlightAware
07:05PM 41.2920 -75.7560 111° Southeast 539 620 29,900 -3,360 Descending FlightAware
07:06PM 41.2490 -75.6170 112° Southeast 530 610 27,400 -3,000 Descending FlightAware
07:06PM 41.2170 -75.5200 114° Southeast 516 594 26,000 -2,580 Descending FlightAware
07:07PM 41.1840 -75.4210 114° Southeast 504 580 24,500 -2,340 Descending FlightAware
07:08PM 41.1500 -75.3230 115° Southeast 500 575 23,200 -1,320 Descending FlightAware
07:08PM 41.1190 -75.2320 114° Southeast 499 574 23,000 -180 Descending FlightAware
07:09PM 41.0850 -75.1300 114° Southeast 489 563 23,000  Level FlightAware
07:09PM 41.0510 -75.0320 115° Southeast 474 545 23,000  Level FlightAware
07:10PM 41.0180 -74.9340 114° Southeast 474 545 23,000 -300 Level FlightAware
07:10PM 40.9950 -74.8430 108° East 498 573 22,700 -1,320 Descending FlightAware
07:11PM 40.9800 -74.7320 100° East 497 572 21,600 -2,340 Descending FlightAware
07:12PM 40.9700 -74.6310 97° East 495 570 20,000 -2,220 Descending FlightAware
07:12PM 40.9580 -74.5230 98° East 490 564 19,100 -840 Descending FlightAware
07:13PM 40.9470 -74.4200 98° East 489 563 19,000 -120 Descending FlightAware
07:13PM 40.9360 -74.3190 98° East 492 566 19,000  Level FlightAware
07:14PM 40.9250 -74.2190 98° East 463 533 19,000  Level FlightAware
07:15PM 40.9099 -74.1371 104° East 475 547 19,000  Level FlightAware ADS-B
07:15PM 40.9059 -74.1243 112° Southeast 397 457 19,000  Level FlightAware ADS-B
07:15PM 40.8974 -74.1030 118° Southeast 376 433 19,000  Level FlightAware ADS-B
07:15PM 40.8923 -74.0934 125° Southeast 366 421 19,000  Level FlightAware ADS-B
07:15PM 40.8824 -74.0792 133° Southeast 349 402 19,000  Level FlightAware ADS-B
07:15PM 40.8685 -74.0651 143° Southeast 328 377 19,000 -600 Level FlightAware ADS-B
07:16PM 40.8450 -74.0464 149° Southeast 316 364 18,700 -1,200 Descending FlightAware ADS-B (KSNC)
07:16PM 40.8306 -74.0354 150° Southeast 314 361 18,400 -1,920 Descending FlightAware ADS-B
07:16PM 40.7822 -73.9986 150° Southeast 308 354 17,100 -2,280 Descending FlightAware ADS-B
07:17PM 40.7585 -73.9803 150° Southeast 304 350 16,200 -2,640 Descending FlightAware ADS-B (KSNC)
07:17PM 40.7310 -73.9645 156° South 308 354 15,300 -2,280 Descending FlightAware ADS-B
07:18PM 40.6830 -73.9450 163° South 285 328 13,800 -2,100 Descending FlightAware
07:18PM 40.6340 -73.9300 167° South 281 323 12,600 -2,340 Descending FlightAware
07:19PM 40.5950 -73.9180 167° South 282 325 11,200 -2,400 Descending FlightAware
07:19PM 40.5460 -73.9010 165° South 285 328 9,900 -2,040 Descending FlightAware
07:20PM 40.5390 -73.8960 152° Southeast 290 334 9,700 -1,800 Descending FlightAware
07:20PM 40.5187 -73.8704 136° Southeast 9,100 -1,800 Descending FlightAware ADS-B
07:21PM 40.4880 -73.8230 130° Southeast 297 342 8,100 -1,500 Descending FlightAware
07:21PM 40.4750 -73.8030 131° Southeast 290 334 7,800 -840 Descending FlightAware
07:21PM 40.4570 -73.7780 133° Southeast 276 318 7,600 -480 Descending FlightAware
07:21PM 40.4410 -73.7520 129° Southeast 262 302 7,500 -480 Descending FlightAware
07:22PM 40.4360 -73.7400 119° Southeast 260 299 7,400 -420 Descending FlightAware
07:22PM 40.4340 -73.7300 105° East 260 299 7,400 -360 Level FlightAware
07:22PM 40.4350 -73.7150 85° East 259 298 7,300 -660 Descending FlightAware
07:22PM 40.4400 -73.6850 78° East 256 295 7,100 -300 Descending FlightAware
07:23PM 40.4470 -73.6540 73° East 260 299 7,100  Level FlightAware
07:23PM 40.4570 -73.6240 66° East 259 298 7,100 -240 Level FlightAware
07:23PM 40.4620 -73.6140 57° Northeast 258 297 7,000 -1,140 Descending FlightAware
07:23PM 40.4760 -73.5920 50° Northeast 255 293 6,600 -1,260 Descending FlightAware
07:24PM 40.4930 -73.5700 45° Northeast 253 291 6,200 -1,080 Descending FlightAware
07:24PM 40.5170 -73.5480 35° Northeast 250 288 5,800 -1,140 Descending FlightAware
07:24PM 40.5360 -73.5330 31° Northeast 249 287 5,400 -1,080 Descending FlightAware
07:25PM 40.5550 -73.5190 29° Northeast 247 284 5,100 -480 Descending FlightAware
07:25PM 40.5770 -73.5020 30° Northeast 250 288 5,100  Level FlightAware
07:25PM 40.5990 -73.4850 30° Northeast 249 287 5,100  Level FlightAware
07:26PM 40.6190 -73.4700 30° Northeast 247 284 5,100  Level FlightAware
07:26PM 40.6350 -73.4590 28° Northeast 245 282 5,100  Level FlightAware
07:26PM 40.6444 -73.4578 North 298 343 5,100  Level FlightAware ADS-B (KSNC)
07:27PM 40.6880 -73.4640 354° North 237 273 5,100  Level FlightAware
07:27PM 40.7100 -73.4680 352° North 237 273 5,100  Level FlightAware
07:28PM 40.7370 -73.4730 352° North 238 274 5,100 -420 Level FlightAware
07:28PM 40.7590 -73.4770 352° North 235 270 4,800 -1,020 Descending FlightAware
07:28PM 40.7690 -73.4790 351° North 236 272 4,600 -1,500 Descending FlightAware
07:28PM 40.7970 -73.4850 351° North 229 264 3,900 -1,500 Descending FlightAware
07:29PM 40.8060 -73.4940 323° Northwest 217 250 3,700 -1,320 Descending FlightAware
07:29PM 40.8110 -73.5020 310° West 210 242 3,500 -1,260 Descending FlightAware
07:29PM 40.8220 -73.5230 305° West 214 246 3,100 -840 Descending FlightAware
07:29PM 40.8250 -73.5330 292° West 212 244 3,100  Level FlightAware
07:29PM 40.8260 -73.5420 278° West 208 239 3,100  Level FlightAware
07:30PM 40.8270 -73.5590 274° West 208 239 3,100 -180 Level FlightAware
07:30PM 40.8210 -73.6010 259° West 197 227 3,000 -420 Descending FlightAware
07:30PM 40.8140 -73.6130 232° Southwest 195 224 2,800 -840 Descending FlightAware
07:31PM 40.8030 -73.6280 226° Southwest 189 217 2,600 -540 Descending FlightAware
07:31PM 40.7850 -73.6460 217° Southwest 177 204 2,400 -540 Descending FlightAware
07:31PM 40.7730 -73.6550 210° Southwest 169 194 2,200 -480 Descending FlightAware
07:32PM 40.7580 -73.6670 211° Southwest 171 197 2,100 -180 Descending FlightAware
07:32PM 40.7430 -73.6780 209° Southwest 170 196 2,100  Level FlightAware
07:32PM 40.7320 -73.6870 212° Southwest 169 194 2,100 -540 Level FlightAware
07:33PM 40.7200 -73.6960 210° Southwest 154 177 1,800 -780 Descending FlightAware
07:33PM 40.7090 -73.7050 212° Southwest 137 158 1,600 -720 Descending FlightAware
07:33PM 40.6970 -73.7150 212° Southwest 124 143 1,300 -660 Descending FlightAware
07:34PM 40.6860 -73.7230 209° Southwest 125 144 1,100 -600 Descending FlightAware
07:34PM 40.6760 -73.7300 208° Southwest 126 145 900 -780 Descending FlightAware
07:35PM 40.6660 -73.7390 214° Southwest 125 144 600 -780 Descending FlightAware
07:35PM 40.6560 -73.7460 208° Southwest 129 148 400 -600 Descending FlightAware
07:35PM 40.6440 -73.7560 212° Southwest 131 151 200 -540 Descending FlightAware
07:36PM 40.6350 -73.7630 211° Southwest 86 99 -600 Descending FlightAware